AirNav   Air Wisconsin pilot careers
 
 700 users online  

N97 Hiatt Airport
Thomasville, North Carolina, USA

GOING TO THOMASVILLE?


FAA INFORMATION EFFECTIVE 09 NOVEMBER 2017

Location

FAA Identifier: N97
Lat/Long: 35-49-48.4920N / 080-06-27.1610W
35-49.808200N / 080-06.452683W
35.8301367 / -80.1075447
(estimated)
Elevation: 855 ft. / 261 m (estimated)
Variation: 10W (2000)
From city: 3 miles SW of THOMASVILLE, NC
Time zone: UTC -5 (UTC -4 during Daylight Saving Time)
Zip code: 27360

Airport Operations

Airport use: Open to the public
Activation date: 11/1959
Control tower: no
ARTCC: ATLANTA CENTER
FSS: RALEIGH FLIGHT SERVICE STATION
NOTAMs facility: RDU (NOTAM-D service available)
Attendance: 1200-DUSK
Wind indicator: yes
Segmented circle: no
Lights: LIRL RY 01/19 & TRIL RY 19 - ON TIMER. RY 01/19 - NSTD END LIGHTS.
Beacon: white-green (lighted land airport)
OTS INDEFINITELY. Operates sunset to sunrise.

Airport Communications

CTAF: 122.9
WX AWOS-3 at EXX (10 nm W): 119.825 (336-956-2967)
WX AWOS-3 at HBI (15 nm SE): 119.275 (336-626-7933)
WX ASOS at GSO (18 nm NE): PHONE 336-393-0168
WX ASOS at INT (19 nm N): PHONE 336-661-3096

Nearby radio navigation aids

VOR radial/distance  VOR name  Freq  Var
GSOr209/14.4GREENSBORO VORTAC116.2003W
LIBr276/24.1LIBERTY VORTAC113.0003W

 
NDB name  Hdg/Dist  Freq  Var  ID
REENO176/14.731707WIN .. -.
SLAMMER214/37.142307WSIF ... .. ..-.

Airport Services

Fuel available: 100LL
FOR FUEL CALL 336-881-0248.
Parking: hangars and tiedowns
Airframe service: MAJOR
Powerplant service: MAJOR
Bottled oxygen: NONE
Bulk oxygen: NONE

Runway Information

Runway 1/19

Dimensions: 2500 x 75 ft. / 762 x 23 m
Surface: turf, in good condition
Runway edge lights: low intensity
RUNWAY 1  RUNWAY 19
Gradient: 0.7%0.7%
Traffic pattern: leftleft
Visual slope indicator: tri-color VASI on left (3.20 degrees glide path)
Obstructions: 45 ft. trees, 47 ft. from runway, 88 ft. left of centerline, 1:1 slope to clear67 ft. trees, 118 ft. from runway, 121 ft. right of centerline, 1:1 slope to clear

Runway 9/27

Dimensions: 1160 x 50 ft. / 354 x 15 m
Surface: turf, in good condition
Operational restrictions: USED PRIMARILY FOR ULTRALIGHTS. RY 27 UPHILL. MARKED WITH YELLOW CONES. NO LINE SIGHT BTWN RY ENDS.
RUNWAY 9  RUNWAY 27
Gradient: 0.9%0.9%
Traffic pattern: leftleft
Obstructions: 78 ft. trees, 176 ft. from runway, 148 ft. left of centerline, 2:1 slope to clear39 ft. trees, 65 ft. from runway, 14 ft. left of centerline, 1:1 slope to clear

Airport Ownership and Management from official FAA records

Ownership: Privately-owned
Owner: PAUL DOUGLAS THARP
788 WRIGHT ROAD
LEXINGTON, NC 27292
Phone (336) 881-0248
Manager: PAUL DOUGLAS THARP
788 WRIGHT ROAD
LEXINGTON, NC 27292
Phone 336-881-0248

Airport Operational Statistics

Aircraft based on the field: 23
Single engine airplanes: 20
Helicopters: 1
Ultralights: 2
    
Aircraft operations: avg 30/day *
82% local general aviation
14% transient general aviation
5% military
* for 12-month period ending 29 April 2016

Additional Remarks

RY 19 PREFERRED FOR LDNG UPHILL; RWY AND THLDS MARKED WITH YELLOW CONES.
RYS 01/19 & 09/27 VFR USE ONLY.
RY 27 HAS +40 FT TREES 70 FT FROM THLD.
BE ALERT FOR NUMEROUS TREES IN THE APPROACHES.
AIRCRAFT MONITOR 122.9.
RY 19 HAS 75 FT DROP OFF 50 FT FROM END BOTH SIDES OF CNTRLN.

Instrument Procedures

There are no published instrument procedures at N97.

Some nearby airports with instrument procedures:

KEXX - Davidson County Airport (10 nm W)
KHBI - Asheboro Regional Airport (15 nm SE)
8A7 - Twin Lakes Airport (18 nm W)
KGSO - Piedmont Triad International Airport (18 nm NE)
KINT - Smith Reynolds Airport (19 nm N)
 
Loc | Ops | Rwys | IFR | FBO | Links
Com | Nav | Svcs | Stats | Notes


 
Area around N97 (Hiatt Airport)
 
Road maps at: MapQuest Bing Google
 
Aerial photo
WARNING: Photo may not be current or correct
Aerial photo of N97 (Hiatt Airport)
Photo taken 07-Nov-2009

Do you have a better or more recent aerial photo of Hiatt Airport that you would like to share? If so, please send us your photo.

 
Sectional chart

 
Airport distance calculator
Flying to Hiatt Airport? Find the distance to fly.

From to N97

Sunrise and sunset
Times for 18-Nov-2017
 Local
(UTC-5)
 Zulu
(UTC)
Morning civil twilight06:3311:33
Sunrise07:0112:01
Sunset17:1122:11
Evening civil twilight17:3822:38

Current date and time
Zulu (UTC)  19-Nov-2017 03:45:56
Local (UTC-5)  18-Nov-2017 22:45:56
 
METAR
KEXX 
10nm W 
190325Z AUTO 19005KT 10SM OVC039 17/11 A2960 RMK AO2 T01720105
KHBI 
15nm SE 
190335Z AUTO 19016G22KT 10SM OVC043 18/10 A2964 RMK AO2 T01760100
KGSO 
18nm NE 
190254Z 22015G25KT 10SM BKN036 BKN070 17/11 A2960 RMK AO2 PK WND 20030/0219 SLP020 T01670106 58027 $
KINT 
19nm N 
190254Z AUTO 21009G17KT 10SM OVC035 17/10 A2960 RMK AO2 SLP019 T01720100 58030 $
TAF
KGSO 
18nm NE 
182128Z 1821/1918 22018G33KT P6SM SCT040 BKN200 FM182300 22016G28KT P6SM BKN035 FM190400 24015G30KT 4SM -SHRA BR OVC030 FM190800 30011KT P6SM OVC050 FM191300 31012G22KT P6SM SCT250
KINT 
19nm N 
182127Z 1821/1918 21015G30KT P6SM SCT040 BKN080 FM182215 22015G23KT P6SM BKN035 FM190300 25015G30KT 4SM -SHRA BR OVC040 FM190800 30011KT P6SM OVC050 FM191200 31012G22KT P6SM SCT250
NOTAMs
Click for the latest NOTAMs
NOTAMs are issued by the DoD/FAA and will open in a separate window not controlled by AirNav.

 

 
 

Would you like to see your business listed on this page?

 If your business provides an interesting product or service to pilots, flight crews, aircraft, or users of the Hiatt Airport, you should consider listing it here.  To start the listing process, click on the button below
 
Add a business
 

Other Pages about Hiatt Airport

Update a link
 
Copyright © AirNav, LLC. All rights reserved. Privacy Policy  Contact